Time;durP1;ratioP1;P1;durP2;ratioP2;P2;SDS_P1;SDS_P2;PMS_P1;PMS_P2;Temp;Humidity;BMP_temperature;BMP_pressure;BME280_temperature;BME280_humidity;BME280_pressure;Samples;Min_cycle;Max_cycle;Signal;HPM_P1;HPM_P2
2022/01/06 00:01:03;;;;;;;;;;;13.00;99.90;;;;;;4999124;28;1009;-54
2022/01/06 00:03:31;;;;;;;;;;;13.00;99.90;;;;;;5001126;28;1348;-45
2022/01/06 00:05:57;;;;;;;;;;;12.90;99.90;;;;;;5028918;28;1010;-54
2022/01/06 00:08:23;;;;;;;;;;;12.90;99.90;;;;;;4996039;28;871;-53
2022/01/06 00:10:52;;;;;;;;;;;12.90;99.90;;;;;;4996243;28;896;-45
2022/01/06 00:13:29;;;;;;;;;;;12.90;99.90;;;;;;4996286;28;975;-54
2022/01/06 00:16:05;;;;;;;;;;;12.90;99.90;;;;;;4999158;28;1981;-44
2022/01/06 00:23:43;;;;;;;;;;;12.90;99.90;;;;;;4995031;28;775;-53
2022/01/06 00:26:10;;;;;;;;;;;12.80;99.90;;;;;;4999784;28;795;-54
2022/01/06 00:28:37;;;;;;;;;;;12.80;99.90;;;;;;5000283;28;1432;-54
2022/01/06 00:31:05;;;;;;;;;;;12.80;99.90;;;;;;5008340;28;873;-53
2022/01/06 00:33:32;;;;;;;;;;;12.80;99.90;;;;;;4999494;28;838;-54
2022/01/06 00:35:58;;;;;;;;;;;12.80;99.90;;;;;;4999381;28;1914;-54
2022/01/06 00:38:25;;;;;;;;;;;12.80;99.90;;;;;;4999493;28;881;-54
2022/01/06 00:40:53;;;;;;;;;;;12.80;99.90;;;;;;4999428;28;796;-54
2022/01/06 00:43:19;;;;;;;;;;;12.70;99.90;;;;;;4999112;28;866;-44
2022/01/06 00:45:45;;;;;;;;;;;12.70;99.90;;;;;;4999043;28;1122;-44
2022/01/06 00:48:12;;;;;;;;;;;12.70;99.90;;;;;;4999073;28;811;-54
2022/01/06 00:50:41;;;;;;;;;;;12.70;99.90;;;;;;4999274;28;1102;-45
2022/01/06 00:53:07;;;;;;;;;;;12.70;99.90;;;;;;5014357;28;842;-44
2022/01/06 00:55:33;;;;;;;;;;;12.70;99.90;;;;;;4999184;28;1918;-53
2022/01/06 00:58:00;;;;;;;;;;;12.70;99.90;;;;;;4998757;28;798;-54
2022/01/06 01:00:28;;;;;;;;;;;12.70;99.90;;;;;;5001555;28;810;-45
2022/01/06 01:02:54;;;;;;;;;;;12.70;99.90;;;;;;4999560;28;861;-44
2022/01/06 01:05:20;;;;;;;;;;;12.60;99.90;;;;;;4999252;28;1057;-44
2022/01/06 01:07:46;;;;;;;;;;;12.60;99.90;;;;;;4998623;28;1253;-44
2022/01/06 01:10:13;;;;;;;;;;;12.60;99.90;;;;;;4999430;28;913;-54
2022/01/06 01:12:46;;;;;;;;;;;12.60;99.90;;;;;;4998527;28;850;-44
2022/01/06 01:15:19;;;;;;;;;;;12.60;99.90;;;;;;4998933;28;1902;-54
2022/01/06 01:17:47;;;;;;;;;;;12.60;99.90;;;;;;4998735;28;957;-45
2022/01/06 01:20:16;;;;;;;;;;;12.60;99.90;;;;;;4998578;28;869;-44
2022/01/06 01:22:43;;;;;;;;;;;12.60;99.90;;;;;;4997656;28;1310;-45
2022/01/06 01:25:09;;;;;;;;;;;12.60;99.90;;;;;;4998847;28;953;-53
2022/01/06 01:27:43;;;;;;;;;;;12.60;99.90;;;;;;4997857;28;868;-54
2022/01/06 01:30:14;;;;;;;;;;;12.50;99.90;;;;;;5000563;28;793;-45
2022/01/06 01:32:45;;;;;;;;;;;12.50;99.90;;;;;;4995608;28;882;-54
2022/01/06 01:35:12;;;;;;;;;;;12.50;99.90;;;;;;5013239;28;1984;-54
2022/01/06 01:37:40;;;;;;;;;;;12.50;99.90;;;;;;4998428;28;906;-54
2022/01/06 01:40:08;;;;;;;;;;;12.50;99.90;;;;;;4996035;28;1065;-45
2022/01/06 01:42:34;;;;;;;;;;;12.50;99.90;;;;;;4998000;28;850;-44
2022/01/06 01:45:02;;;;;;;;;;;12.50;99.90;;;;;;5013109;28;1046;-54
2022/01/06 01:47:39;;;;;;;;;;;12.50;99.90;;;;;;4998003;28;864;-54
2022/01/06 01:50:16;;;;;;;;;;;12.50;99.90;;;;;;4999986;28;1009;-54
2022/01/06 01:53:01;;;;;;;;;;;12.40;99.90;;;;;;4997986;28;880;-44
2022/01/06 01:55:28;;;;;;;;;;;12.40;99.90;;;;;;4996838;28;1910;-44
2022/01/06 01:57:56;;;;;;;;;;;12.40;99.90;;;;;;4997630;28;850;-53
2022/01/06 02:00:25;;;;;;;;;;;12.40;99.90;;;;;;4999482;28;972;-54
2022/01/06 02:02:52;;;;;;;;;;;12.40;99.90;;;;;;5013163;28;872;-44
2022/01/06 02:05:25;;;;;;;;;;;12.40;99.90;;;;;;4997643;28;896;-53
2022/01/06 02:07:53;;;;;;;;;;;12.40;99.90;;;;;;4997647;28;892;-53
2022/01/06 02:10:20;;;;;;;;;;;12.40;99.90;;;;;;4997388;28;988;-54
2022/01/06 02:12:48;;;;;;;;;;;12.40;99.90;;;;;;5012864;28;894;-54
2022/01/06 02:15:16;;;;;;;;;;;12.40;99.90;;;;;;4979679;28;1915;-45
2022/01/06 02:17:44;;;;;;;;;;;12.40;99.90;;;;;;4995828;28;1489;-45
2022/01/06 02:20:14;;;;;;;;;;;12.30;99.90;;;;;;4996123;28;994;-44
2022/01/06 02:22:40;;;;;;;;;;;12.30;99.90;;;;;;4995192;28;854;-53
2022/01/06 02:25:26;;;;;;;;;;;12.30;99.90;;;;;;4997302;28;859;-53
2022/01/06 02:27:55;;;;;;;;;;;12.30;99.90;;;;;;4993192;28;774;-53
2022/01/06 02:30:23;;;;;;;;;;;12.30;99.90;;;;;;5012011;28;908;-45
2022/01/06 02:32:51;;;;;;;;;;;12.30;99.90;;;;;;4993525;28;893;-53
2022/01/06 02:35:18;;;;;;;;;;;12.30;99.90;;;;;;4996427;28;1910;-54
2022/01/06 02:37:45;;;;;;;;;;;12.30;99.90;;;;;;4996600;28;783;-54
2022/01/06 02:40:14;;;;;;;;;;;12.30;99.90;;;;;;4996710;28;870;-44
2022/01/06 02:42:45;;;;;;;;;;;12.30;99.90;;;;;;5012596;28;803;-54
2022/01/06 02:45:12;;;;;;;;;;;12.30;99.90;;;;;;5011646;28;1197;-54
2022/01/06 02:47:39;;;;;;;;;;;12.20;99.90;;;;;;4997076;28;901;-53
2022/01/06 02:50:07;;;;;;;;;;;12.20;99.90;;;;;;4997150;28;826;-54
2022/01/06 02:52:32;;;;;;;;;;;12.20;99.90;;;;;;4996783;28;865;-53
2022/01/06 02:55:00;;;;;;;;;;;12.20;99.90;;;;;;4996434;28;1961;-45
2022/01/06 02:57:26;;;;;;;;;;;12.20;99.90;;;;;;4996523;28;771;-44
2022/01/06 02:59:54;;;;;;;;;;;12.20;99.90;;;;;;5001550;28;797;-53
2022/01/06 03:02:19;;;;;;;;;;;12.20;99.90;;;;;;4997012;28;797;-45
2022/01/06 03:04:47;;;;;;;;;;;12.20;99.90;;;;;;4996679;28;838;-53
2022/01/06 03:07:12;;;;;;;;;;;12.20;99.90;;;;;;5012409;28;1522;-54
2022/01/06 03:09:40;;;;;;;;;;;12.10;99.90;;;;;;4997531;28;922;-53
2022/01/06 03:12:18;;;;;;;;;;;12.10;99.90;;;;;;4996874;28;897;-53
2022/01/06 03:14:44;;;;;;;;;;;12.10;99.90;;;;;;4994712;28;1390;-44
2022/01/06 03:17:12;;;;;;;;;;;12.10;99.90;;;;;;4996507;28;1903;-44
2022/01/06 03:19:38;;;;;;;;;;;12.10;99.90;;;;;;4996769;28;783;-53
2022/01/06 03:22:03;;;;;;;;;;;12.10;99.90;;;;;;4997289;28;878;-44
2022/01/06 03:24:29;;;;;;;;;;;12.10;99.90;;;;;;4996444;28;841;-53
2022/01/06 03:26:55;;;;;;;;;;;12.10;99.90;;;;;;4997060;28;853;-54
2022/01/06 03:29:22;;;;;;;;;;;12.10;99.90;;;;;;4997712;28;914;-53
2022/01/06 03:31:48;;;;;;;;;;;12.10;99.90;;;;;;4996365;28;910;-53
2022/01/06 03:34:16;;;;;;;;;;;12.10;99.90;;;;;;4996372;28;770;-44
2022/01/06 03:36:42;;;;;;;;;;;12.10;99.90;;;;;;4996205;28;1985;-44
2022/01/06 03:39:10;;;;;;;;;;;12.00;99.90;;;;;;4996494;28;841;-44
2022/01/06 03:41:37;;;;;;;;;;;12.00;99.90;;;;;;4996546;28;873;-53
2022/01/06 03:44:03;;;;;;;;;;;12.00;99.90;;;;;;4995921;28;1185;-53
2022/01/06 03:46:30;;;;;;;;;;;12.00;99.90;;;;;;4996543;28;834;-53
2022/01/06 03:48:57;;;;;;;;;;;12.00;99.90;;;;;;4996532;28;893;-53
2022/01/06 03:51:25;;;;;;;;;;;12.00;99.90;;;;;;5000007;28;767;-45
2022/01/06 03:53:51;;;;;;;;;;;12.00;99.90;;;;;;4993074;28;1022;-45
2022/01/06 03:56:17;;;;;;;;;;;12.00;99.90;;;;;;4976383;28;1910;-53
2022/01/06 03:58:44;;;;;;;;;;;12.00;99.90;;;;;;5003746;28;852;-54
2022/01/06 04:01:11;;;;;;;;;;;12.00;99.90;;;;;;4999744;28;875;-53
2022/01/06 04:03:37;;;;;;;;;;;12.00;99.90;;;;;;5000125;28;1063;-53
2022/01/06 04:06:03;;;;;;;;;;;12.00;99.90;;;;;;4999675;28;911;-53
2022/01/06 04:08:30;;;;;;;;;;;11.90;99.90;;;;;;4999510;28;929;-44
2022/01/06 04:10:56;;;;;;;;;;;11.90;99.90;;;;;;4999770;28;1035;-54
2022/01/06 04:13:24;;;;;;;;;;;11.90;99.90;;;;;;5014598;28;989;-44
2022/01/06 04:15:52;;;;;;;;;;;11.90;99.90;;;;;;4999326;28;1910;-44
2022/01/06 04:18:18;;;;;;;;;;;11.90;99.90;;;;;;4999691;28;881;-45
2022/01/06 04:20:45;;;;;;;;;;;11.90;99.90;;;;;;4999301;28;1002;-44
2022/01/06 04:23:11;;;;;;;;;;;11.90;99.90;;;;;;4999994;28;830;-53
2022/01/06 04:25:37;;;;;;;;;;;11.90;99.90;;;;;;4999595;28;792;-53
2022/01/06 04:28:03;;;;;;;;;;;11.90;99.90;;;;;;4999549;28;780;-44
2022/01/06 04:30:30;;;;;;;;;;;11.90;99.90;;;;;;5016876;28;1045;-44
2022/01/06 04:32:58;;;;;;;;;;;11.80;99.90;;;;;;4999476;28;915;-54
2022/01/06 04:35:26;;;;;;;;;;;11.80;99.90;;;;;;5014051;28;1977;-54
2022/01/06 04:37:52;;;;;;;;;;;11.80;99.90;;;;;;5030662;28;994;-44
2022/01/06 04:40:17;;;;;;;;;;;11.80;99.90;;;;;;4999776;28;938;-54
2022/01/06 04:42:43;;;;;;;;;;;11.80;99.90;;;;;;4999085;28;833;-45
2022/01/06 04:45:09;;;;;;;;;;;11.80;99.90;;;;;;4997712;28;1066;-44
2022/01/06 04:47:37;;;;;;;;;;;11.80;99.90;;;;;;4999192;28;861;-54
2022/01/06 04:50:03;;;;;;;;;;;11.80;99.90;;;;;;4999329;28;1022;-54
2022/01/06 04:52:30;;;;;;;;;;;11.80;99.90;;;;;;4999459;28;864;-44
2022/01/06 04:54:56;;;;;;;;;;;11.80;99.90;;;;;;4998762;28;1224;-54
2022/01/06 04:57:23;;;;;;;;;;;11.80;99.90;;;;;;4999014;28;2270;-44
2022/01/06 04:59:49;;;;;;;;;;;11.80;99.90;;;;;;5000362;28;865;-44
2022/01/06 05:02:15;;;;;;;;;;;11.80;99.90;;;;;;5013357;28;806;-54
2022/01/06 05:04:42;;;;;;;;;;;11.80;99.90;;;;;;4999650;28;948;-53
2022/01/06 05:07:07;;;;;;;;;;;11.70;99.90;;;;;;5014116;28;1446;-53
2022/01/06 05:09:33;;;;;;;;;;;11.70;99.90;;;;;;4999524;28;926;-53
2022/01/06 05:11:59;;;;;;;;;;;11.80;99.90;;;;;;4998748;28;801;-44
2022/01/06 05:14:25;;;;;;;;;;;11.70;99.90;;;;;;4998581;28;784;-54
2022/01/06 05:16:55;;;;;;;;;;;11.70;99.90;;;;;;5029872;28;1903;-44
2022/01/06 05:19:23;;;;;;;;;;;11.70;99.90;;;;;;4998493;28;1638;-44
2022/01/06 05:21:49;;;;;;;;;;;11.70;99.90;;;;;;4997864;28;1570;-44
2022/01/06 05:24:17;;;;;;;;;;;11.70;99.90;;;;;;5014012;28;877;-44
2022/01/06 05:26:43;;;;;;;;;;;11.70;99.90;;;;;;4999421;28;1021;-44
2022/01/06 05:29:10;;;;;;;;;;;11.70;99.90;;;;;;4998359;28;931;-44
2022/01/06 05:31:39;;;;;;;;;;;11.70;99.90;;;;;;4998306;28;828;-54
2022/01/06 05:34:06;;;;;;;;;;;11.70;99.90;;;;;;4998671;28;785;-53
2022/01/06 05:36:33;;;;;;;;;;;11.70;99.90;;;;;;5013739;28;1898;-53
2022/01/06 05:38:59;;;;;;;;;;;11.60;99.90;;;;;;4998215;28;1036;-54
2022/01/06 05:41:27;;;;;;;;;;;11.60;99.90;;;;;;4998199;28;755;-54
2022/01/06 05:43:53;;;;;;;;;;;11.60;99.90;;;;;;4998119;28;1028;-44
2022/01/06 05:46:19;;;;;;;;;;;11.60;99.90;;;;;;4993400;28;879;-53
2022/01/06 05:48:45;;;;;;;;;;;11.60;99.90;;;;;;4978669;28;865;-44
2022/01/06 05:51:12;;;;;;;;;;;11.60;99.90;;;;;;4981850;28;1401;-45
2022/01/06 05:53:40;;;;;;;;;;;11.60;99.90;;;;;;4978724;28;894;-44
2022/01/06 05:56:05;;;;;;;;;;;11.60;99.90;;;;;;4978767;28;1980;-53
2022/01/06 05:58:31;;;;;;;;;;;11.60;99.90;;;;;;4980602;28;864;-53
2022/01/06 06:00:59;;;;;;;;;;;11.60;99.90;;;;;;4979081;28;834;-44
2022/01/06 06:03:27;;;;;;;;;;;11.60;99.90;;;;;;4978206;28;943;-44
2022/01/06 06:05:55;;;;;;;;;;;11.60;99.90;;;;;;4978683;28;975;-44
2022/01/06 06:08:21;;;;;;;;;;;11.70;99.90;;;;;;4978420;28;853;-44
2022/01/06 06:10:47;;;;;;;;;;;11.70;99.90;;;;;;4978145;28;784;-53
2022/01/06 06:13:14;;;;;;;;;;;11.80;99.90;;;;;;4978857;28;954;-53
2022/01/06 06:15:41;;;;;;;;;;;11.80;99.90;;;;;;4982812;28;1898;-53
2022/01/06 06:18:12;;;;;;;;;;;11.90;99.90;;;;;;4982332;28;854;-44
2022/01/06 06:20:40;;;;;;;;;;;12.00;99.90;;;;;;5009497;28;1379;-44
2022/01/06 06:23:08;;;;;;;;;;;12.00;99.90;;;;;;4978177;28;944;-44
2022/01/06 06:25:34;;;;;;;;;;;12.10;99.90;;;;;;4977852;28;843;-44
2022/01/06 06:28:00;;;;;;;;;;;12.20;99.90;;;;;;4977429;28;1935;-44
2022/01/06 06:30:26;;;;;;;;;;;12.20;99.90;;;;;;4977701;28;746;-44
2022/01/06 06:32:52;;;;;;;;;;;12.30;99.90;;;;;;4977939;28;991;-44
2022/01/06 06:35:18;;;;;;;;;;;12.40;99.90;;;;;;5009268;28;818;-44
2022/01/06 06:37:44;;;;;;;;;;;12.50;99.90;;;;;;4977538;28;1975;-44
2022/01/06 06:40:11;;;;;;;;;;;12.60;99.90;;;;;;4977568;28;778;-44
2022/01/06 06:42:37;;;;;;;;;;;12.70;99.90;;;;;;4977654;28;925;-44
2022/01/06 06:45:08;;;;;;;;;;;12.70;99.90;;;;;;4986843;28;1039;-44
2022/01/06 06:47:34;;;;;;;;;;;12.80;99.90;;;;;;4979378;28;1016;-44
2022/01/06 06:50:00;;;;;;;;;;;12.90;99.90;;;;;;4997346;28;1287;-44
2022/01/06 06:52:26;;;;;;;;;;;13.00;99.90;;;;;;4996937;28;996;-44
2022/01/06 06:54:54;;;;;;;;;;;13.10;99.90;;;;;;4996810;28;870;-44
2022/01/06 06:57:20;;;;;;;;;;;13.20;99.90;;;;;;4996749;28;1964;-44
2022/01/06 06:59:46;;;;;;;;;;;13.20;99.90;;;;;;4999533;28;802;-44
2022/01/06 07:02:12;;;;;;;;;;;13.30;99.90;;;;;;4996698;28;835;-44
2022/01/06 07:04:37;;;;;;;;;;;13.40;99.90;;;;;;4996761;28;758;-44
2022/01/06 07:07:03;;;;;;;;;;;13.50;99.90;;;;;;4995158;28;1033;-44
2022/01/06 07:09:30;;;;;;;;;;;13.50;99.90;;;;;;4995857;28;904;-44
2022/01/06 07:11:56;;;;;;;;;;;13.50;99.90;;;;;;4996846;28;818;-53
2022/01/06 07:14:23;;;;;;;;;;;13.60;99.90;;;;;;4996673;28;890;-54
2022/01/06 07:16:49;;;;;;;;;;;13.60;99.90;;;;;;4996456;28;1966;-53
2022/01/06 07:19:15;;;;;;;;;;;13.70;99.90;;;;;;4996553;28;823;-53
2022/01/06 07:21:42;;;;;;;;;;;13.70;99.90;;;;;;4997218;28;854;-44
2022/01/06 07:24:08;;;;;;;;;;;13.70;99.90;;;;;;4996009;28;825;-45
2022/01/06 07:26:35;;;;;;;;;;;13.70;99.90;;;;;;4996661;28;830;-54
2022/01/06 07:29:01;;;;;;;;;;;13.80;99.90;;;;;;5002295;28;1008;-54
2022/01/06 07:31:28;;;;;;;;;;;13.80;99.90;;;;;;4993540;28;1394;-53
2022/01/06 07:33:54;;;;;;;;;;;13.80;99.90;;;;;;4996449;28;1630;-45
2022/01/06 07:36:20;;;;;;;;;;;13.80;99.90;;;;;;4996475;28;1969;-53
2022/01/06 07:38:46;;;;;;;;;;;13.80;99.90;;;;;;4996237;28;1140;-53
2022/01/06 07:41:15;;;;;;;;;;;13.80;99.90;;;;;;4996351;28;845;-45
2022/01/06 07:43:42;;;;;;;;;;;13.90;99.90;;;;;;4996439;28;927;-45
2022/01/06 07:46:10;;;;;;;;;;;13.80;99.90;;;;;;4995961;28;1019;-53
2022/01/06 07:48:53;;;;;;;;;;;13.80;99.90;;;;;;4996931;28;931;-54
2022/01/06 07:51:19;;;;;;;;;;;13.80;99.90;;;;;;4992562;28;902;-54
2022/01/06 07:53:45;;;;;;;;;;;13.80;99.90;;;;;;4996901;28;858;-53
2022/01/06 07:56:11;;;;;;;;;;;13.80;99.90;;;;;;4996364;28;1910;-53
2022/01/06 07:58:37;;;;;;;;;;;13.80;99.90;;;;;;4998020;28;928;-54
2022/01/06 08:01:03;;;;;;;;;;;13.80;99.90;;;;;;4995263;28;960;-54
2022/01/06 08:03:29;;;;;;;;;;;13.80;99.90;;;;;;4996819;28;1018;-53
2022/01/06 08:05:56;;;;;;;;;;;13.80;99.90;;;;;;4996317;28;854;-53
2022/01/06 08:08:23;;;;;;;;;;;13.80;99.90;;;;;;4995772;28;1002;-44
2022/01/06 08:10:49;;;;;;;;;;;13.80;99.90;;;;;;4990639;28;977;-44
2022/01/06 08:13:15;;;;;;;;;;;13.80;99.90;;;;;;4995801;28;857;-44
2022/01/06 08:15:42;;;;;;;;;;;13.80;99.90;;;;;;4995838;28;816;-44
2022/01/06 08:18:08;;;;;;;;;;;13.80;99.90;;;;;;4996002;28;801;-44
2022/01/06 08:20:55;;;;;;;;;;;13.80;99.90;;;;;;4996127;28;1203;-44
2022/01/06 08:23:22;;;;;;;;;;;13.80;99.90;;;;;;4978399;28;967;-44
2022/01/06 08:25:50;;;;;;;;;;;13.90;99.90;;;;;;5011310;28;1364;-44
2022/01/06 08:28:16;;;;;;;;;;;13.90;99.90;;;;;;4996154;28;842;-44
2022/01/06 08:30:42;;;;;;;;;;;13.90;99.90;;;;;;4998024;28;1001;-44
2022/01/06 08:33:08;;;;;;;;;;;14.00;99.90;;;;;;4996638;28;867;-44
2022/01/06 08:35:35;;;;;;;;;;;14.00;99.90;;;;;;4995915;28;857;-44
2022/01/06 08:38:01;;;;;;;;;;;14.10;99.90;;;;;;4998452;28;1969;-44
2022/01/06 08:40:28;;;;;;;;;;;14.10;99.90;;;;;;4999262;28;786;-44
2022/01/06 08:42:55;;;;;;;;;;;14.20;99.90;;;;;;4999075;28;853;-44
2022/01/06 08:45:22;;;;;;;;;;;14.20;99.90;;;;;;4998726;28;1011;-45
2022/01/06 08:47:48;;;;;;;;;;;14.20;99.90;;;;;;5030555;28;920;-44
2022/01/06 08:50:15;;;;;;;;;;;14.20;99.90;;;;;;5030573;28;860;-44
2022/01/06 08:52:41;;;;;;;;;;;14.10;99.90;;;;;;4994276;28;1258;-46
2022/01/06 08:55:08;;;;;;;;;;;14.10;99.90;;;;;;4999644;28;1008;-45
2022/01/06 08:57:34;;;;;;;;;;;14.10;99.90;;;;;;4999492;28;1985;-53
2022/01/06 09:00:00;;;;;;;;;;;14.10;99.90;;;;;;5000896;28;862;-52
2022/01/06 09:02:27;;;;;;;;;;;14.10;99.90;;;;;;4998865;28;847;-53
2022/01/06 09:04:56;;;;;;;;;;;14.10;99.90;;;;;;4999137;28;845;-53
2022/01/06 09:07:25;;;;;;;;;;;14.10;99.90;;;;;;4998826;28;881;-53
2022/01/06 09:09:55;;;;;;;;;;;14.10;99.90;;;;;;4999607;28;1044;-53
2022/01/06 09:12:21;;;;;;;;;;;14.10;99.90;;;;;;4998709;28;882;-44
2022/01/06 09:14:47;;;;;;;;;;;14.10;99.90;;;;;;4996834;28;935;-44
2022/01/06 09:17:13;;;;;;;;;;;14.10;99.90;;;;;;4996868;28;1906;-44
2022/01/06 09:19:39;;;;;;;;;;;14.10;99.90;;;;;;4996918;28;929;-44
2022/01/06 09:22:05;;;;;;;;;;;14.10;99.90;;;;;;4996935;28;820;-44
2022/01/06 09:24:31;;;;;;;;;;;14.00;99.90;;;;;;4996927;28;818;-44
2022/01/06 09:26:59;;;;;;;;;;;14.00;99.90;;;;;;4996630;28;1412;-44
2022/01/06 09:29:26;;;;;;;;;;;14.00;99.90;;;;;;4996737;28;913;-53
2022/01/06 09:31:53;;;;;;;;;;;14.00;99.90;;;;;;4996619;28;1149;-53
2022/01/06 09:34:19;;;;;;;;;;;14.00;99.90;;;;;;4996800;28;1413;-53
2022/01/06 09:36:45;;;;;;;;;;;14.00;99.90;;;;;;4996512;28;1906;-53
2022/01/06 09:39:11;;;;;;;;;;;14.00;99.90;;;;;;4995618;28;1512;-53
2022/01/06 09:41:37;;;;;;;;;;;14.00;99.90;;;;;;4996135;28;875;-53
2022/01/06 09:44:03;;;;;;;;;;;14.00;99.90;;;;;;4995285;28;1055;-53
2022/01/06 09:46:30;;;;;;;;;;;14.00;99.90;;;;;;4962736;28;890;-44
2022/01/06 09:49:03;;;;;;;;;;;14.00;99.90;;;;;;4959363;28;822;-44
2022/01/06 09:51:30;;;;;;;;;;;14.00;99.90;;;;;;4959760;28;819;-53
2022/01/06 09:54:01;;;;;;;;;;;14.00;99.90;;;;;;4959390;28;786;-53
2022/01/06 09:56:29;;;;;;;;;;;14.00;99.90;;;;;;4959425;28;1980;-53
2022/01/06 09:58:56;;;;;;;;;;;14.00;99.90;;;;;;4960425;28;832;-53
2022/01/06 10:01:23;;;;;;;;;;;14.00;99.90;;;;;;4958566;29;964;-44
2022/01/06 10:03:49;;;;;;;;;;;13.90;99.90;;;;;;4959342;28;1569;-44
2022/01/06 10:06:16;;;;;;;;;;;14.00;99.90;;;;;;4958981;29;847;-44
2022/01/06 10:08:47;;;;;;;;;;;14.00;99.90;;;;;;4959431;28;831;-44
2022/01/06 10:11:19;;;;;;;;;;;14.10;99.90;;;;;;4958866;29;900;-44
2022/01/06 10:13:52;;;;;;;;;;;14.10;99.90;;;;;;4958014;28;1017;-44
2022/01/06 10:16:19;;;;;;;;;;;14.10;99.90;;;;;;4976297;28;1902;-44
2022/01/06 10:19:00;;;;;;;;;;;14.20;99.90;;;;;;4976374;28;938;-44
2022/01/06 10:21:32;;;;;;;;;;;14.20;99.90;;;;;;4976431;28;984;-44
2022/01/06 10:24:03;;;;;;;;;;;14.20;99.90;;;;;;4960211;28;1431;-44
2022/01/06 10:26:30;;;;;;;;;;;14.20;99.90;;;;;;4976244;28;1068;-44
2022/01/06 10:28:58;;;;;;;;;;;14.20;99.90;;;;;;4980501;28;1018;-44
2022/01/06 10:31:25;;;;;;;;;;;14.20;99.90;;;;;;4976036;28;1055;-44
2022/01/06 10:33:51;;;;;;;;;;;14.20;99.90;;;;;;4976257;28;784;-44
2022/01/06 10:36:17;;;;;;;;;;;14.20;99.90;;;;;;4976058;28;1918;-44
2022/01/06 10:38:51;;;;;;;;;;;14.20;99.90;;;;;;4976201;28;906;-44
2022/01/06 10:41:17;;;;;;;;;;;14.20;99.90;;;;;;4976057;28;1064;-44
2022/01/06 10:43:50;;;;;;;;;;;14.20;99.90;;;;;;4971009;28;805;-44
2022/01/06 10:46:26;;;;;;;;;;;14.20;99.90;;;;;;4992869;28;1215;-44
2022/01/06 10:48:57;;;;;;;;;;;14.20;99.90;;;;;;4992174;28;775;-44
2022/01/06 10:51:33;;;;;;;;;;;14.20;99.90;;;;;;4975966;28;970;-44
2022/01/06 10:54:00;;;;;;;;;;;14.20;99.90;;;;;;4985604;28;1342;-44
2022/01/06 10:56:28;;;;;;;;;;;14.20;99.90;;;;;;4978098;28;1910;-44
2022/01/06 10:58:58;;;;;;;;;;;14.20;99.90;;;;;;4978325;28;869;-44
2022/01/06 11:01:24;;;;;;;;;;;14.20;99.90;;;;;;4991622;28;795;-44
2022/01/06 11:03:50;;;;;;;;;;;14.20;99.90;;;;;;4977537;28;830;-53
2022/01/06 11:06:16;;;;;;;;;;;14.20;99.90;;;;;;4977326;28;879;-44
2022/01/06 11:08:43;;;;;;;;;;;14.10;99.90;;;;;;4977285;28;858;-53
2022/01/06 11:13:40;;;;;;;;;;;14.10;99.90;;;;;;4977364;28;789;-54
2022/01/06 11:16:06;;;;;;;;;;;14.10;99.90;;;;;;4976880;28;874;-54
2022/01/06 11:18:33;;;;;;;;;;;14.10;99.90;;;;;;4977176;28;1970;-53
2022/01/06 11:21:03;;;;;;;;;;;14.10;99.90;;;;;;4977140;28;1184;-53
2022/01/06 11:23:31;;;;;;;;;;;14.10;99.90;;;;;;4974983;28;831;-54
2022/01/06 11:26:09;;;;;;;;;;;14.10;99.90;;;;;;4977495;28;921;-53
2022/01/06 11:28:35;;;;;;;;;;;14.10;99.90;;;;;;4979086;28;795;-53
2022/01/06 11:31:17;;;;;;;;;;;14.10;99.90;;;;;;4977957;28;864;-53
2022/01/06 11:33:45;;;;;;;;;;;14.10;99.90;;;;;;4977161;28;826;-53
2022/01/06 11:36:19;;;;;;;;;;;14.20;99.90;;;;;;4977231;28;791;-53
2022/01/06 11:38:47;;;;;;;;;;;14.10;99.90;;;;;;4983835;28;1321;-44
2022/01/06 11:41:14;;;;;;;;;;;14.10;99.90;;;;;;4977988;28;958;-44
2022/01/06 11:43:41;;;;;;;;;;;14.10;99.90;;;;;;4976985;28;793;-48
2022/01/06 11:46:07;;;;;;;;;;;14.00;99.90;;;;;;4993685;28;1019;-44
2022/01/06 11:48:44;;;;;;;;;;;14.00;99.90;;;;;;4996002;28;1363;-53
2022/01/06 11:51:32;;;;;;;;;;;14.00;99.90;;;;;;5005840;28;963;-44
2022/01/06 11:53:58;;;;;;;;;;;14.00;99.90;;;;;;4996064;28;1654;-54
2022/01/06 11:56:24;;;;;;;;;;;14.00;99.90;;;;;;4996151;28;1914;-53
2022/01/06 11:58:57;;;;;;;;;;;14.00;99.90;;;;;;4995176;28;1076;-53
2022/01/06 12:01:24;;;;;;;;;;;14.00;99.90;;;;;;4996280;28;1404;-46
2022/01/06 12:03:50;;;;;;;;;;;14.00;99.90;;;;;;4999762;28;809;-53
2022/01/06 12:06:23;;;;;;;;;;;14.00;99.90;;;;;;4996045;28;769;-53
2022/01/06 12:08:49;;;;;;;;;;;14.00;99.90;;;;;;4995311;28;918;-54
2022/01/06 12:11:19;;;;;;;;;;;14.00;99.90;;;;;;4997840;28;1117;-44
2022/01/06 12:13:46;;;;;;;;;;;14.00;99.90;;;;;;5000387;28;888;-53
2022/01/06 12:16:22;;;;;;;;;;;14.00;99.90;;;;;;4998783;28;799;-44
2022/01/06 12:18:48;;;;;;;;;;;13.90;99.90;;;;;;4994902;28;847;-44
2022/01/06 12:21:13;;;;;;;;;;;13.90;99.90;;;;;;4999692;28;827;-45
2022/01/06 12:23:41;;;;;;;;;;;13.90;99.90;;;;;;5014905;28;1176;-44
2022/01/06 12:26:11;;;;;;;;;;;14.00;99.90;;;;;;4999526;28;857;-51
2022/01/06 12:28:48;;;;;;;;;;;13.90;99.90;;;;;;5000224;28;877;-53
2022/01/06 12:31:21;;;;;;;;;;;14.00;99.90;;;;;;4999241;28;820;-54
2022/01/06 12:33:48;;;;;;;;;;;14.00;99.90;;;;;;4999169;28;926;-44
2022/01/06 12:36:18;;;;;;;;;;;13.90;99.90;;;;;;4998925;28;890;-53
2022/01/06 12:38:45;;;;;;;;;;;14.00;99.90;;;;;;4999208;28;1902;-52
2022/01/06 12:41:13;;;;;;;;;;;14.00;99.90;;;;;;4999251;28;787;-44
2022/01/06 12:43:42;;;;;;;;;;;14.00;99.90;;;;;;5000077;28;906;-45
2022/01/06 12:46:27;;;;;;;;;;;14.00;99.90;;;;;;4998843;28;1356;-44
2022/01/06 12:48:53;;;;;;;;;;;14.00;99.90;;;;;;4998969;28;1278;-44
2022/01/06 12:51:20;;;;;;;;;;;14.00;99.90;;;;;;4999001;28;843;-44
2022/01/06 12:53:47;;;;;;;;;;;14.00;99.90;;;;;;4999598;28;917;-44
2022/01/06 12:56:24;;;;;;;;;;;14.00;99.90;;;;;;4999111;28;1164;-44
2022/01/06 12:58:51;;;;;;;;;;;14.00;99.90;;;;;;4999568;28;887;-44
2022/01/06 13:01:17;;;;;;;;;;;14.00;99.90;;;;;;4999237;28;890;-44
2022/01/06 13:03:49;;;;;;;;;;;14.00;99.90;;;;;;4998936;28;799;-44
2022/01/06 13:06:15;;;;;;;;;;;14.00;99.90;;;;;;4999092;28;736;-44
2022/01/06 13:09:00;;;;;;;;;;;14.00;99.90;;;;;;4999029;28;806;-44
2022/01/06 13:11:40;;;;;;;;;;;14.00;99.90;;;;;;4998878;28;816;-44
2022/01/06 13:14:08;;;;;;;;;;;14.00;99.90;;;;;;4998594;28;842;-44
2022/01/06 13:16:39;;;;;;;;;;;14.00;99.90;;;;;;4997038;28;1962;-44
2022/01/06 13:19:16;;;;;;;;;;;14.00;99.90;;;;;;4998472;28;800;-53
2022/01/06 13:21:48;;;;;;;;;;;14.00;99.90;;;;;;4998494;28;809;-54
2022/01/06 13:24:16;;;;;;;;;;;13.90;99.90;;;;;;4998878;28;837;-53
2022/01/06 13:26:48;;;;;;;;;;;13.90;99.90;;;;;;4998244;28;881;-53
2022/01/06 13:29:30;;;;;;;;;;;13.80;99.90;;;;;;4998061;28;896;-44
2022/01/06 13:32:10;;;;;;;;;;;13.80;99.90;;;;;;4998567;28;1161;-53
2022/01/06 13:34:38;;;;;;;;;;;13.80;99.90;;;;;;4998554;28;795;-44
2022/01/06 13:37:06;;;;;;;;;;;13.80;99.90;;;;;;5012677;28;1976;-53
2022/01/06 13:39:33;;;;;;;;;;;13.80;99.90;;;;;;5012986;28;881;-53
2022/01/06 13:41:59;;;;;;;;;;;13.80;99.90;;;;;;4995524;28;1220;-44
2022/01/06 13:44:25;;;;;;;;;;;13.80;99.90;;;;;;4996241;28;1285;-44
2022/01/06 13:47:06;;;;;;;;;;;13.80;99.90;;;;;;4996373;28;874;-44
2022/01/06 13:52:19;;;;;;;;;;;13.70;99.90;;;;;;4996399;28;955;-44
2022/01/06 13:54:45;;;;;;;;;;;13.80;99.90;;;;;;4996289;28;1071;-44
2022/01/06 13:57:11;;;;;;;;;;;13.80;99.90;;;;;;4995800;28;1911;-44
2022/01/06 13:59:38;;;;;;;;;;;13.80;99.90;;;;;;4993827;28;1138;-44
2022/01/06 14:02:04;;;;;;;;;;;13.70;99.90;;;;;;4996002;28;937;-44
2022/01/06 14:04:31;;;;;;;;;;;13.70;99.90;;;;;;4996142;28;823;-44
2022/01/06 14:06:57;;;;;;;;;;;13.80;99.90;;;;;;4995273;28;1086;-44
2022/01/06 14:09:24;;;;;;;;;;;13.80;99.90;;;;;;4994318;28;1109;-44
2022/01/06 14:11:52;;;;;;;;;;;13.80;99.90;;;;;;4995971;28;826;-44
2022/01/06 14:14:20;;;;;;;;;;;13.80;99.90;;;;;;4995659;28;1062;-44
2022/01/06 14:16:46;;;;;;;;;;;13.80;99.90;;;;;;4995680;28;1910;-45
2022/01/06 14:19:12;;;;;;;;;;;13.80;99.90;;;;;;4995809;28;837;-44
2022/01/06 14:21:38;;;;;;;;;;;13.80;99.90;;;;;;4997240;28;1004;-44
2022/01/06 14:24:04;;;;;;;;;;;13.80;99.90;;;;;;4997354;28;852;-44
2022/01/06 14:26:30;;;;;;;;;;;13.80;99.90;;;;;;4997595;28;794;-44
2022/01/06 14:28:58;;;;;;;;;;;13.70;99.90;;;;;;4999903;28;972;-44
2022/01/06 14:31:25;;;;;;;;;;;13.70;99.90;;;;;;4997116;28;833;-44
2022/01/06 14:33:53;;;;;;;;;;;13.70;99.90;;;;;;4997309;28;889;-44
2022/01/06 14:36:20;;;;;;;;;;;13.70;99.90;;;;;;4997338;28;884;-44
2022/01/06 14:38:47;;;;;;;;;;;13.60;99.90;;;;;;4996912;28;1902;-44
2022/01/06 14:41:15;;;;;;;;;;;13.70;99.90;;;;;;4997098;28;825;-44
2022/01/06 14:43:41;;;;;;;;;;;13.60;99.90;;;;;;4996741;28;855;-44
2022/01/06 14:46:08;;;;;;;;;;;13.60;99.90;;;;;;4996728;28;1001;-44
2022/01/06 14:48:34;;;;;;;;;;;13.60;99.90;;;;;;4996621;28;1369;-53
2022/01/06 14:51:00;;;;;;;;;;;13.60;99.90;;;;;;4996944;28;1179;-44
2022/01/06 14:53:27;;;;;;;;;;;13.60;99.90;;;;;;4996844;28;931;-44